Saint-Romuald, Canada
Current Conditions -  °F | °C
As of 4:24 AM on Saturday 20 Dec 2014 (Local Time) from CYQB Reporting Station
Haze Haze  
Wind Chill:   Ceiling: Unl
Heat Index:   Visibility: 3mi
Dew Point: -2°   Wind: 2mph
Humidity: 85%   Direction: 340°NNW
Pressure: 30.29"   Gusts: NA
Location:  46.75°N, 71.23°W
Report Text: CYQB 200924Z 34002KT 3SM BR SCT001 M17/M19 A3029 RMK SF4 SLP264
Loading
Personal Weather Stations






























Interactive Weather Map New forecast layout! Learn more

10-Day Weather Forecast

Advertisements
Track Severe Weather on mobile